Terminal Aerodrome Forecast
Issued by NWS Duluth, MN

Home | Current Version | Previous Version | Text Only | Print | Product List | Glossary On
Versions: 1 2 3 4 5 6 7 8 9 10 11 12 13 14 15 16 17 18 19 20 21 22 23 24 25 26 27 28 29 30 31 32 33 34 35 36 37 38 39 40 41 42
948
FTUS43 KDLH 091728
TAFINL
TAF
KINL 091728Z 0918/1018 29008KT 5SM -SHSN OVC020
      TEMPO 0918/0921 2SM -SHSN
     FM100100 28005KT P6SM VCSH OVC015=

USA.gov is the U.S. government's official web portal to all federal, state and local government web resources and services.